KBKL/BKL METAR and TAF weather

Enter ICAO airport designator
Station Type Date Time Source
KBKL METAR 2018/12/10 18:53 UTC NOAA

KBKL 101853Z 27008KT 10SM OVC023 01/M04 A3021 RMK AO2 SLP234 T00061044


Station Type Date Time Source
KBKL Decoded METAR 2018/12/10 18:53 UTC NOAA

CLEVELAND BURKE LAKEFRONT, OH, United States (KBKL) 41-32N 81-40W 184M
Dec 10, 2018 - 01:53 PM EST / 2018.12.10 1853 UTC
Wind: from the W (270 degrees) at 9 MPH (8 KT):0
Visibility: 10 mile(s):0
Sky conditions: overcast
Temperature: 33.1 F (0.6 C)
Windchill: 24 F (-4 C):1
Dew Point: 24.1 F (-4.4 C)
Relative Humidity: 69%
Pressure (altimeter): 30.21 in. Hg (1023 hPa)
ob: KBKL 101853Z 27008KT 10SM OVC023 01/M04 A3021 RMK AO2 SLP234 T00061044
cycle: 19

Station Type Date Time Source
KBKL TAF UTC NOAA

Error!


Example: see airport list